Time;durP1;ratioP1;P1;durP2;ratioP2;P2;SDS_P1;SDS_P2;PMS_P1;PMS_P2;Temp;Humidity;BMP_temperature;BMP_pressure;BME280_temperature;BME280_humidity;BME280_pressure;Samples;Min_cycle;Max_cycle;Signal;HPM_P1;HPM_P2
2024/01/03 00:01:22;;;;;;;3.97;1.30;;;;;;;;;;5111279;27;20099;-82
2024/01/03 00:03:48;;;;;;;2.85;0.80;;;;;;;;;;5129513;27;20047;-83
2024/01/03 00:06:15;;;;;;;2.72;0.85;;;;;;;;;;5126118;27;20153;-81
2024/01/03 00:08:41;;;;;;;4.93;1.10;;;;;;;;;;5121652;27;20040;-83
2024/01/03 00:11:07;;;;;;;2.70;1.02;;;;;;;;;;5126486;27;20038;-82
2024/01/03 00:13:36;;;;;;;0.20;0.20;;;;;;;;;;5109673;27;20081;-82
2024/01/03 00:16:06;;;;;;;1.80;0.45;;;;;;;;;;5129802;27;20411;-82
2024/01/03 00:18:38;;;;;;;5.28;1.13;;;;;;;;;;5125077;27;20104;-82
2024/01/03 00:21:05;;;;;;;3.63;1.00;;;;;;;;;;5109917;27;20039;-84
2024/01/03 00:23:38;;;;;;;2.45;0.80;;;;;;;;;;5123509;27;20578;-83
2024/01/03 00:26:07;;;;;;;5.00;1.30;;;;;;;;;;5112765;27;20042;-82
2024/01/03 00:28:34;;;;;;;4.40;0.90;;;;;;;;;;5122913;27;20043;-83
2024/01/03 00:31:00;;;;;;;6.18;0.93;;;;;;;;;;5126521;27;20035;-83
2024/01/03 00:33:26;;;;;;;3.95;1.23;;;;;;;;;;5132751;27;20046;-82
2024/01/03 00:35:52;;;;;;;2.53;0.77;;;;;;;;;;5127561;27;20046;-82
2024/01/03 00:38:18;;;;;;;3.47;1.08;;;;;;;;;;5133371;27;20418;-84
2024/01/03 00:40:52;;;;;;;3.47;0.75;;;;;;;;;;5133043;27;20038;-82
2024/01/03 00:43:18;;;;;;;3.35;0.82;;;;;;;;;;5127131;27;20046;-83
2024/01/03 00:45:44;;;;;;;1.60;0.47;;;;;;;;;;5128014;27;20088;-83
2024/01/03 00:48:10;;;;;;;3.47;1.17;;;;;;;;;;5125318;27;20077;-83
2024/01/03 00:50:36;;;;;;;3.05;0.75;;;;;;;;;;5120702;27;20036;-82
2024/01/03 00:53:02;;;;;;;7.70;1.33;;;;;;;;;;5123205;27;20057;-83
2024/01/03 00:55:28;;;;;;;3.33;0.80;;;;;;;;;;5107490;28;20042;-84
2024/01/03 00:57:55;;;;;;;1.67;0.40;;;;;;;;;;5114539;27;20046;-83
2024/01/03 01:00:21;;;;;;;5.35;1.50;;;;;;;;;;5126264;27;20043;-84
2024/01/03 01:02:47;;;;;;;4.95;1.25;;;;;;;;;;5121347;27;20046;-83
2024/01/03 01:05:14;;;;;;;2.45;0.60;;;;;;;;;;5128974;27;20039;-83
2024/01/03 01:07:40;;;;;;;6.72;1.33;;;;;;;;;;5129600;27;20043;-83
2024/01/03 01:10:06;;;;;;;5.63;0.70;;;;;;;;;;5123158;28;20039;-83
2024/01/03 01:12:32;;;;;;;5.18;1.35;;;;;;;;;;5126042;27;20035;-84
2024/01/03 01:15:01;;;;;;;5.85;1.73;;;;;;;;;;5108713;28;20502;-83
2024/01/03 01:17:27;;;;;;;6.03;1.58;;;;;;;;;;5125095;28;20103;-83
2024/01/03 01:19:53;;;;;;;4.47;1.30;;;;;;;;;;5107675;28;20050;-84
2024/01/03 01:22:19;;;;;;;4.50;1.10;;;;;;;;;;5125821;28;20059;-83
2024/01/03 01:24:45;;;;;;;6.65;0.88;;;;;;;;;;5126748;27;20049;-82
2024/01/03 01:27:11;;;;;;;7.40;1.33;;;;;;;;;;5108799;28;20040;-83
2024/01/03 01:29:40;;;;;;;4.97;1.05;;;;;;;;;;5123691;28;20065;-83
2024/01/03 01:32:06;;;;;;;3.03;0.90;;;;;;;;;;5126228;28;20039;-84
2024/01/03 01:34:32;;;;;;;4.47;1.30;;;;;;;;;;5127664;28;20039;-83
2024/01/03 01:36:58;;;;;;;2.47;1.25;;;;;;;;;;5125241;28;20039;-84
2024/01/03 01:39:24;;;;;;;3.58;1.08;;;;;;;;;;5101612;28;20040;-84
2024/01/03 01:41:51;;;;;;;2.15;1.20;;;;;;;;;;5124475;28;20078;-82
2024/01/03 01:44:17;;;;;;;5.03;1.48;;;;;;;;;;5110238;28;20036;-82
2024/01/03 01:46:46;;;;;;;4.03;1.13;;;;;;;;;;5122123;28;20043;-82
2024/01/03 01:49:13;;;;;;;4.18;1.08;;;;;;;;;;5124708;28;20035;-83
2024/01/03 01:51:39;;;;;;;4.45;0.85;;;;;;;;;;5120081;28;20117;-83
2024/01/03 01:54:05;;;;;;;5.43;1.20;;;;;;;;;;5124253;27;20027;-83
2024/01/03 01:56:32;;;;;;;4.45;0.80;;;;;;;;;;5129039;27;20047;-82
2024/01/03 01:58:59;;;;;;;3.20;1.25;;;;;;;;;;5137520;27;20096;-84
2024/01/03 02:01:27;;;;;;;2.33;0.63;;;;;;;;;;5141351;27;20035;-82
2024/01/03 02:03:54;;;;;;;4.00;1.17;;;;;;;;;;5138636;27;20039;-83
2024/01/03 02:06:20;;;;;;;3.63;1.38;;;;;;;;;;5130216;27;20119;-84
2024/01/03 02:08:46;;;;;;;2.97;0.88;;;;;;;;;;5125570;27;20064;-83
2024/01/03 02:11:13;;;;;;;3.60;1.00;;;;;;;;;;5127654;27;20039;-84
2024/01/03 02:13:39;;;;;;;3.15;0.88;;;;;;;;;;5123959;27;20081;-83
2024/01/03 02:16:05;;;;;;;3.58;0.65;;;;;;;;;;5126634;27;20035;-84
2024/01/03 02:18:31;;;;;;;2.72;0.85;;;;;;;;;;5127088;27;20041;-82
2024/01/03 02:20:57;;;;;;;1.95;0.60;;;;;;;;;;5127328;27;20031;-84
2024/01/03 02:23:24;;;;;;;0.77;0.35;;;;;;;;;;5108767;28;20056;-83
2024/01/03 02:25:50;;;;;;;3.08;0.68;;;;;;;;;;5128657;27;20027;-85
2024/01/03 02:28:16;;;;;;;5.18;1.10;;;;;;;;;;5126323;27;20099;-83
2024/01/03 02:30:44;;;;;;;3.85;0.80;;;;;;;;;;5110845;27;20035;-83
2024/01/03 02:33:11;;;;;;;5.15;1.30;;;;;;;;;;5124440;27;20050;-83
2024/01/03 02:35:37;;;;;;;4.53;0.90;;;;;;;;;;5121226;27;20039;-83
2024/01/03 02:38:03;;;;;;;3.20;1.00;;;;;;;;;;5123640;27;20135;-84
2024/01/03 02:40:29;;;;;;;3.55;0.70;;;;;;;;;;5125346;27;20407;-83
2024/01/03 02:42:55;;;;;;;0.93;0.57;;;;;;;;;;5108410;27;20041;-83
2024/01/03 02:45:21;;;;;;;2.33;1.00;;;;;;;;;;5123362;27;20047;-84
2024/01/03 02:47:47;;;;;;;3.58;1.17;;;;;;;;;;5108787;27;20522;-82
2024/01/03 02:50:13;;;;;;;2.90;0.85;;;;;;;;;;5125051;27;20395;-84
2024/01/03 02:52:39;;;;;;;1.48;0.65;;;;;;;;;;5105285;27;20043;-85
2024/01/03 02:55:05;;;;;;;2.60;0.57;;;;;;;;;;5120127;27;20039;-84
2024/01/03 02:57:31;;;;;;;1.80;0.70;;;;;;;;;;5125564;27;20093;-84
2024/01/03 02:59:57;;;;;;;1.67;0.52;;;;;;;;;;5108206;27;20031;-84
2024/01/03 03:02:23;;;;;;;0.73;0.25;;;;;;;;;;5109529;27;20039;-85
2024/01/03 03:04:49;;;;;;;1.00;0.20;;;;;;;;;;5111513;27;20039;-85
2024/01/03 03:07:15;;;;;;;0.73;0.35;;;;;;;;;;5128087;27;20031;-83
2024/01/03 03:09:41;;;;;;;1.95;0.30;;;;;;;;;;5127240;27;20061;-84
2024/01/03 03:12:07;;;;;;;0.45;0.30;;;;;;;;;;5129518;27;20036;-82
2024/01/03 03:14:33;;;;;;;1.55;0.38;;;;;;;;;;5136624;27;20049;-83
2024/01/03 03:16:59;;;;;;;1.98;0.38;;;;;;;;;;5125422;27;20074;-83
2024/01/03 03:19:25;;;;;;;0.80;0.10;;;;;;;;;;5124725;27;20478;-84
2024/01/03 03:21:51;;;;;;;0.40;0.20;;;;;;;;;;5125375;27;20067;-82
2024/01/03 03:24:17;;;;;;;0.00;0.00;;;;;;;;;;5126069;27;20046;-83
2024/01/03 03:26:43;;;;;;;0.45;0.10;;;;;;;;;;5123437;27;20039;-79
2024/01/03 03:29:12;;;;;;;0.70;0.15;;;;;;;;;;5123016;27;20054;-80
2024/01/03 03:31:38;;;;;;;0.35;0.20;;;;;;;;;;5125517;27;20482;-79
2024/01/03 03:34:04;;;;;;;0.90;0.25;;;;;;;;;;5123603;27;20062;-79
2024/01/03 03:36:30;;;;;;;1.10;0.20;;;;;;;;;;5121363;27;20437;-79
2024/01/03 03:38:56;;;;;;;0.00;0.00;;;;;;;;;;5124571;27;20169;-79
2024/01/03 03:41:23;;;;;;;0.05;0.00;;;;;;;;;;5125368;27;20076;-79
2024/01/03 03:43:49;;;;;;;0.82;0.32;;;;;;;;;;5127049;27;20046;-80
2024/01/03 03:46:16;;;;;;;0.08;0.08;;;;;;;;;;5126000;27;20031;-80
2024/01/03 03:48:42;;;;;;;0.35;0.22;;;;;;;;;;5122332;27;20479;-80
2024/01/03 03:51:08;;;;;;;2.35;0.73;;;;;;;;;;5124621;27;20064;-79
2024/01/03 03:53:34;;;;;;;5.25;0.85;;;;;;;;;;5120706;27;20114;-79
2024/01/03 03:56:02;;;;;;;8.75;1.02;;;;;;;;;;5127438;27;20071;-79
2024/01/03 03:58:28;;;;;;;6.65;1.42;;;;;;;;;;5129232;27;20041;-80
2024/01/03 04:00:54;;;;;;;2.78;0.95;;;;;;;;;;5122951;27;20122;-80
2024/01/03 04:03:21;;;;;;;5.00;1.20;;;;;;;;;;5125285;27;20047;-80
2024/01/03 04:05:47;;;;;;;6.35;1.95;;;;;;;;;;5126556;27;20043;-81
2024/01/03 04:08:14;;;;;;;10.45;2.25;;;;;;;;;;5125319;27;20031;-81
2024/01/03 04:10:40;;;;;;;6.32;1.63;;;;;;;;;;5126084;27;20038;-80
2024/01/03 04:13:06;;;;;;;12.13;2.30;;;;;;;;;;5124744;27;20047;-80
2024/01/03 04:15:32;;;;;;;17.33;3.25;;;;;;;;;;5124143;27;20039;-81
2024/01/03 04:17:59;;;;;;;2.20;0.95;;;;;;;;;;5126613;27;20043;-80
2024/01/03 04:20:24;;;;;;;7.70;1.95;;;;;;;;;;5124475;27;20403;-79
2024/01/03 04:22:51;;;;;;;5.18;2.20;;;;;;;;;;5125370;27;20063;-80
2024/01/03 04:25:17;;;;;;;9.48;1.77;;;;;;;;;;5126406;27;20042;-80
2024/01/03 04:27:43;;;;;;;10.45;2.13;;;;;;;;;;5123367;27;20047;-81
2024/01/03 04:30:09;;;;;;;7.90;2.60;;;;;;;;;;5126609;27;20039;-81
2024/01/03 04:32:35;;;;;;;9.07;1.38;;;;;;;;;;5124062;27;20039;-80
2024/01/03 04:35:01;;;;;;;11.93;2.58;;;;;;;;;;5128176;27;20034;-80
2024/01/03 04:37:28;;;;;;;9.50;2.50;;;;;;;;;;5122885;27;20609;-80
2024/01/03 04:39:54;;;;;;;10.40;2.38;;;;;;;;;;5122501;27;20035;-80
2024/01/03 04:42:20;;;;;;;8.88;1.30;;;;;;;;;;5123231;27;20054;-81
2024/01/03 04:44:46;;;;;;;8.48;2.08;;;;;;;;;;5122857;27;20510;-81
2024/01/03 04:47:12;;;;;;;7.32;2.72;;;;;;;;;;5124414;27;20032;-80
2024/01/03 04:49:38;;;;;;;9.82;1.10;;;;;;;;;;5125882;27;20087;-80
2024/01/03 04:52:04;;;;;;;16.95;3.10;;;;;;;;;;5124629;27;20433;-80
2024/01/03 04:54:30;;;;;;;8.75;1.98;;;;;;;;;;5122812;27;20040;-80
2024/01/03 04:56:56;;;;;;;11.95;2.20;;;;;;;;;;5120948;27;20077;-80
2024/01/03 04:59:22;;;;;;;10.63;2.63;;;;;;;;;;5122885;27;20549;-80
2024/01/03 05:01:48;;;;;;;11.10;2.72;;;;;;;;;;5125669;27;20043;-80
2024/01/03 05:04:14;;;;;;;10.07;2.53;;;;;;;;;;5123041;27;20483;-80
2024/01/03 05:06:40;;;;;;;13.65;2.80;;;;;;;;;;5121454;27;20035;-80
2024/01/03 05:09:06;;;;;;;4.63;1.15;;;;;;;;;;5124910;27;20143;-80
2024/01/03 05:11:35;;;;;;;4.70;1.25;;;;;;;;;;5107973;28;20043;-80
2024/01/03 05:14:01;;;;;;;5.72;2.35;;;;;;;;;;5124289;27;20050;-81
2024/01/03 05:16:27;;;;;;;4.78;2.45;;;;;;;;;;5122113;28;20043;-80
2024/01/03 05:18:53;;;;;;;10.57;2.05;;;;;;;;;;5120257;28;20032;-80
2024/01/03 05:21:19;;;;;;;10.18;2.28;;;;;;;;;;5123702;28;20505;-80
2024/01/03 05:23:45;;;;;;;9.77;2.90;;;;;;;;;;5124657;28;20054;-81
2024/01/03 05:26:13;;;;;;;3.90;0.93;;;;;;;;;;5118582;28;20062;-80
2024/01/03 05:28:39;;;;;;;7.47;2.03;;;;;;;;;;5121630;27;20160;-80
2024/01/03 05:31:05;;;;;;;7.75;2.03;;;;;;;;;;5131418;27;20513;-80
2024/01/03 05:33:31;;;;;;;14.70;3.28;;;;;;;;;;5132249;27;20039;-81
2024/01/03 05:35:57;;;;;;;9.77;1.88;;;;;;;;;;5112629;27;20118;-81
2024/01/03 05:38:23;;;;;;;4.80;1.50;;;;;;;;;;5126683;27;20075;-80
2024/01/03 05:40:50;;;;;;;6.43;2.13;;;;;;;;;;5124138;27;20031;-80
2024/01/03 05:43:17;;;;;;;6.18;1.35;;;;;;;;;;5129767;27;20036;-81
2024/01/03 05:45:43;;;;;;;8.88;2.03;;;;;;;;;;5129812;27;20081;-80
2024/01/03 05:48:09;;;;;;;9.48;2.17;;;;;;;;;;5127400;27;20028;-80
2024/01/03 05:50:35;;;;;;;6.60;1.92;;;;;;;;;;5128546;27;20091;-80
2024/01/03 05:53:02;;;;;;;7.40;1.13;;;;;;;;;;5126218;27;20512;-80
2024/01/03 05:55:28;;;;;;;7.00;1.85;;;;;;;;;;5129653;27;20047;-80
2024/01/03 05:57:54;;;;;;;3.83;1.63;;;;;;;;;;5127948;27;20031;-80
2024/01/03 06:00:21;;;;;;;2.08;1.63;;;;;;;;;;5127418;27;20032;-80
2024/01/03 06:02:47;;;;;;;12.82;1.67;;;;;;;;;;5127499;27;20084;-80
2024/01/03 06:05:16;;;;;;;5.55;1.48;;;;;;;;;;5128062;27;20925;-81
2024/01/03 06:07:44;;;;;;;6.97;1.98;;;;;;;;;;5133473;27;20043;-80
2024/01/03 06:10:10;;;;;;;13.27;2.33;;;;;;;;;;5132162;27;20036;-81
2024/01/03 06:12:36;;;;;;;9.65;2.33;;;;;;;;;;5129418;27;20037;-80
2024/01/03 06:15:02;;;;;;;11.20;1.90;;;;;;;;;;5131948;27;20028;-80
2024/01/03 06:17:28;;;;;;;6.50;1.55;;;;;;;;;;5132349;27;20382;-79
2024/01/03 06:19:54;;;;;;;2.85;1.25;;;;;;;;;;5124879;27;20495;-81
2024/01/03 06:22:20;;;;;;;7.22;1.55;;;;;;;;;;5127335;27;20058;-83
2024/01/03 06:24:46;;;;;;;5.72;1.65;;;;;;;;;;5125564;27;20043;-85
2024/01/03 06:27:12;;;;;;;3.38;1.27;;;;;;;;;;5122040;27;20039;-85
2024/01/03 06:29:38;;;;;;;11.18;3.15;;;;;;;;;;5123304;27;20039;-84
2024/01/03 06:32:04;;;;;;;10.90;2.22;;;;;;;;;;5126331;27;20473;-82
2024/01/03 06:34:30;;;;;;;7.72;1.45;;;;;;;;;;5124295;27;20043;-84
2024/01/03 06:36:57;;;;;;;12.48;2.15;;;;;;;;;;5125472;27;20042;-84
2024/01/03 06:39:23;;;;;;;8.30;2.17;;;;;;;;;;5123504;27;20048;-81
2024/01/03 06:41:49;;;;;;;6.90;2.97;;;;;;;;;;5127237;27;20043;-82
2024/01/03 06:44:15;;;;;;;13.48;2.25;;;;;;;;;;5127951;27;20035;-83
2024/01/03 06:46:41;;;;;;;5.53;1.70;;;;;;;;;;5124933;27;20403;-83
2024/01/03 06:49:07;;;;;;;6.10;1.73;;;;;;;;;;5124738;27;20035;-84
2024/01/03 06:51:33;;;;;;;12.63;1.40;;;;;;;;;;5125937;27;20433;-84
2024/01/03 06:53:59;;;;;;;11.23;2.65;;;;;;;;;;5126606;27;20046;-83
2024/01/03 06:56:25;;;;;;;8.27;1.80;;;;;;;;;;5126964;27;20083;-83
2024/01/03 06:58:51;;;;;;;6.65;1.50;;;;;;;;;;5126114;27;20173;-84
2024/01/03 07:01:17;;;;;;;5.57;1.35;;;;;;;;;;5124502;27;20063;-84
2024/01/03 07:03:43;;;;;;;2.42;1.42;;;;;;;;;;5123530;27;20039;-85
2024/01/03 07:06:09;;;;;;;8.35;0.93;;;;;;;;;;5121078;27;20045;-84
2024/01/03 07:08:35;;;;;;;5.15;1.45;;;;;;;;;;5106230;27;20134;-84
2024/01/03 07:11:01;;;;;;;4.57;1.75;;;;;;;;;;5125931;27;20042;-84
2024/01/03 07:13:27;;;;;;;10.73;2.25;;;;;;;;;;5123831;27;20050;-84
2024/01/03 07:15:53;;;;;;;6.63;1.80;;;;;;;;;;5123057;27;20047;-87
2024/01/03 07:18:20;;;;;;;12.90;1.85;;;;;;;;;;5122795;27;20035;-84
2024/01/03 07:20:46;;;;;;;8.30;1.40;;;;;;;;;;5118882;27;20099;-84
2024/01/03 07:23:12;;;;;;;5.80;1.48;;;;;;;;;;5106651;27;20051;-85
2024/01/03 07:25:38;;;;;;;11.38;1.73;;;;;;;;;;5104246;27;20092;-85
2024/01/03 07:28:04;;;;;;;10.57;1.45;;;;;;;;;;5108269;27;20055;-83
2024/01/03 07:30:30;;;;;;;5.53;0.82;;;;;;;;;;5120580;27;20046;-84
2024/01/03 07:32:57;;;;;;;7.22;2.03;;;;;;;;;;5105058;27;20040;-84
2024/01/03 07:35:24;;;;;;;7.03;1.20;;;;;;;;;;5128140;27;20039;-83
2024/01/03 07:37:50;;;;;;;7.93;1.90;;;;;;;;;;5120710;27;20031;-84
2024/01/03 07:40:16;;;;;;;5.43;1.35;;;;;;;;;;5122749;27;20031;-83
2024/01/03 07:42:42;;;;;;;4.32;1.48;;;;;;;;;;5119548;27;20046;-83
2024/01/03 07:45:11;;;;;;;18.05;0.93;;;;;;;;;;5122263;27;20043;-84
2024/01/03 07:47:37;;;;;;;5.72;1.83;;;;;;;;;;5124596;27;20062;-83
2024/01/03 07:50:03;;;;;;;4.35;1.45;;;;;;;;;;5122625;27;20032;-83
2024/01/03 07:52:29;;;;;;;10.13;1.98;;;;;;;;;;5122564;27;20047;-82
2024/01/03 07:54:55;;;;;;;7.35;1.38;;;;;;;;;;5123810;27;20468;-83
2024/01/03 07:57:21;;;;;;;11.93;2.00;;;;;;;;;;5127444;27;20038;-82
2024/01/03 07:59:47;;;;;;;10.75;2.85;;;;;;;;;;5122338;27;20031;-83
2024/01/03 08:02:13;;;;;;;8.45;1.50;;;;;;;;;;5124144;27;20035;-83
2024/01/03 08:04:40;;;;;;;3.35;0.80;;;;;;;;;;5125325;27;20317;-84
2024/01/03 08:07:06;;;;;;;8.45;1.00;;;;;;;;;;5122579;27;20036;-82
2024/01/03 08:09:37;;;;;;;7.07;1.58;;;;;;;;;;5127352;27;20121;-84
2024/01/03 08:12:04;;;;;;;2.25;0.50;;;;;;;;;;5121879;27;20495;-83
2024/01/03 08:14:31;;;;;;;8.50;1.17;;;;;;;;;;5127236;27;20133;-83
2024/01/03 08:16:56;;;;;;;6.18;1.00;;;;;;;;;;5125933;27;20047;-84
2024/01/03 08:19:22;;;;;;;2.08;1.60;;;;;;;;;;5123801;27;20050;-84
2024/01/03 08:21:48;;;;;;;2.97;1.45;;;;;;;;;;5123488;27;20064;-83
2024/01/03 08:24:14;;;;;;;5.75;1.35;;;;;;;;;;5125484;27;20039;-83
2024/01/03 08:26:40;;;;;;;6.22;1.55;;;;;;;;;;5125125;27;20101;-83
2024/01/03 08:29:07;;;;;;;5.53;1.50;;;;;;;;;;5127425;27;20380;-83
2024/01/03 08:31:33;;;;;;;5.30;0.82;;;;;;;;;;5122994;27;20464;-83
2024/01/03 08:33:59;;;;;;;8.05;1.77;;;;;;;;;;5125923;27;20035;-82
2024/01/03 08:36:38;;;;;;;3.88;0.80;;;;;;;;;;5125147;27;20520;-83
2024/01/03 08:39:04;;;;;;;3.53;1.02;;;;;;;;;;5125265;27;20077;-83
2024/01/03 08:41:30;;;;;;;4.68;0.98;;;;;;;;;;5124718;27;20062;-81
2024/01/03 08:43:57;;;;;;;3.10;0.30;;;;;;;;;;5129005;27;20070;-81
2024/01/03 08:46:26;;;;;;;1.83;1.02;;;;;;;;;;5127600;27;20039;-81
2024/01/03 08:48:52;;;;;;;4.13;1.05;;;;;;;;;;5126396;27;20690;-80
2024/01/03 08:51:18;;;;;;;4.60;1.00;;;;;;;;;;5127290;27;20039;-85
2024/01/03 08:53:44;;;;;;;3.67;0.77;;;;;;;;;;5104763;28;20039;-84
2024/01/03 08:56:17;;;;;;;0.80;0.20;;;;;;;;;;5127073;27;20037;-84
2024/01/03 08:58:43;;;;;;;3.63;0.73;;;;;;;;;;5125637;27;20035;-84
2024/01/03 09:01:15;;;;;;;4.78;0.95;;;;;;;;;;5128047;27;20368;-83
2024/01/03 09:03:41;;;;;;;6.20;1.38;;;;;;;;;;5127220;27;20054;-84
2024/01/03 09:06:07;;;;;;;5.05;1.30;;;;;;;;;;5126867;27;20047;-83
2024/01/03 09:08:33;;;;;;;4.57;1.42;;;;;;;;;;5122579;27;20039;-85
2024/01/03 09:10:59;;;;;;;8.82;1.13;;;;;;;;;;5123993;27;20036;-83
2024/01/03 09:13:26;;;;;;;7.35;0.82;;;;;;;;;;5125866;27;20416;-84
2024/01/03 09:15:52;;;;;;;9.73;0.98;;;;;;;;;;5125047;28;20047;-84
2024/01/03 09:18:21;;;;;;;2.00;0.75;;;;;;;;;;5121510;28;20050;-84
2024/01/03 09:20:47;;;;;;;6.50;1.25;;;;;;;;;;5125256;28;20059;-84
2024/01/03 09:23:13;;;;;;;6.70;1.42;;;;;;;;;;5128984;28;20043;-83
2024/01/03 09:25:49;;;;;;;5.10;1.55;;;;;;;;;;5130588;28;20079;-84
2024/01/03 09:28:15;;;;;;;5.10;0.88;;;;;;;;;;5135321;28;20043;-84
2024/01/03 09:30:41;;;;;;;3.72;1.30;;;;;;;;;;5125560;28;20469;-84
2024/01/03 09:33:07;;;;;;;9.68;2.05;;;;;;;;;;5129150;28;20071;-84
2024/01/03 09:35:33;;;;;;;7.65;1.48;;;;;;;;;;5130604;28;20402;-83
2024/01/03 09:37:59;;;;;;;9.13;1.17;;;;;;;;;;5127053;28;20043;-85
2024/01/03 09:40:25;;;;;;;2.38;0.90;;;;;;;;;;5119684;28;20503;-85
2024/01/03 09:42:52;;;;;;;2.70;0.70;;;;;;;;;;5126247;28;20035;-85
2024/01/03 09:45:18;;;;;;;3.92;1.05;;;;;;;;;;5102451;28;20055;-84
2024/01/03 09:47:44;;;;;;;8.02;2.63;;;;;;;;;;5121004;28;20050;-83
2024/01/03 09:50:10;;;;;;;3.53;1.38;;;;;;;;;;5127432;28;20379;-84
2024/01/03 09:52:38;;;;;;;3.25;1.00;;;;;;;;;;5120521;28;20071;-84
2024/01/03 09:55:04;;;;;;;9.35;2.15;;;;;;;;;;5121009;28;20475;-84
2024/01/03 09:57:30;;;;;;;3.38;0.70;;;;;;;;;;5110522;28;20043;-84
2024/01/03 09:59:59;;;;;;;8.02;1.45;;;;;;;;;;5111882;28;20035;-84
2024/01/03 10:02:28;;;;;;;9.85;1.25;;;;;;;;;;5100248;28;20053;-83
2024/01/03 10:04:57;;;;;;;5.18;1.45;;;;;;;;;;5112893;27;20140;-84
2024/01/03 10:07:33;;;;;;;9.02;1.67;;;;;;;;;;5107442;28;20135;-84
2024/01/03 10:09:59;;;;;;;3.88;0.77;;;;;;;;;;5109402;28;20077;-84
2024/01/03 10:12:25;;;;;;;5.65;1.02;;;;;;;;;;5122424;28;20054;-85
2024/01/03 10:14:51;;;;;;;5.22;1.13;;;;;;;;;;5122937;27;20125;-84
2024/01/03 10:17:17;;;;;;;9.20;0.73;;;;;;;;;;5113012;27;20749;-84
2024/01/03 10:19:43;;;;;;;3.63;1.48;;;;;;;;;;5114231;27;20093;-83
2024/01/03 10:22:09;;;;;;;6.55;1.42;;;;;;;;;;5122023;27;20101;-84
2024/01/03 10:24:42;;;;;;;6.22;1.35;;;;;;;;;;5125278;27;20412;-84
2024/01/03 10:27:09;;;;;;;6.45;1.90;;;;;;;;;;5111639;27;20068;-84
2024/01/03 10:29:36;;;;;;;4.68;1.20;;;;;;;;;;5126428;27;20046;-84
2024/01/03 10:32:05;;;;;;;2.25;0.55;;;;;;;;;;5124286;27;20036;-84
2024/01/03 10:34:31;;;;;;;2.95;0.90;;;;;;;;;;5121995;27;20373;-84
2024/01/03 10:36:58;;;;;;;3.53;0.88;;;;;;;;;;5106964;27;20034;-84
2024/01/03 10:39:28;;;;;;;6.35;1.05;;;;;;;;;;5125676;27;20480;-85
2024/01/03 10:41:54;;;;;;;4.95;0.90;;;;;;;;;;5129261;27;20050;-86
2024/01/03 10:44:22;;;;;;;3.95;1.83;;;;;;;;;;5126881;27;20046;-84
2024/01/03 10:46:48;;;;;;;4.35;1.10;;;;;;;;;;5127369;27;20046;-85
2024/01/03 10:49:18;;;;;;;8.23;1.73;;;;;;;;;;5121598;27;20122;-85
2024/01/03 10:51:44;;;;;;;3.13;0.70;;;;;;;;;;5124318;27;20084;-84
2024/01/03 10:54:11;;;;;;;9.98;1.27;;;;;;;;;;5124454;27;20489;-84
2024/01/03 10:56:37;;;;;;;11.77;2.70;;;;;;;;;;5122107;27;20070;-84
2024/01/03 10:59:08;;;;;;;4.32;0.70;;;;;;;;;;5124747;27;20417;-85
2024/01/03 11:01:34;;;;;;;;;;;;;;;;;;5125877;27;20077;-84
2024/01/03 11:04:10;;;;;;;8.43;2.00;;;;;;;;;;5121411;27;19919;-84
2024/01/03 11:06:36;;;;;;;5.85;0.90;;;;;;;;;;5124187;27;20074;-84
2024/01/03 11:09:02;;;;;;;7.93;0.60;;;;;;;;;;5123685;27;20039;-85
2024/01/03 11:11:29;;;;;;;5.78;1.98;;;;;;;;;;5123466;27;20032;-84
2024/01/03 11:13:56;;;;;;;7.93;1.67;;;;;;;;;;5123200;27;20071;-84
2024/01/03 11:16:35;;;;;;;9.82;1.52;;;;;;;;;;5126176;27;20113;-84
2024/01/03 11:19:02;;;;;;;3.60;1.27;;;;;;;;;;5123608;27;20437;-86
2024/01/03 11:21:30;;;;;;;2.42;0.70;;;;;;;;;;5131068;27;20168;-83
2024/01/03 11:23:56;;;;;;;3.90;1.10;;;;;;;;;;5122606;27;20129;-84
2024/01/03 11:26:43;;;;;;;7.25;2.20;;;;;;;;;;5127411;27;20044;-84
2024/01/03 11:29:28;;;;;;;;;;;;;;;;;;5125548;27;20030;-85
2024/01/03 11:32:06;;;;;;;11.20;1.63;;;;;;;;;;5125197;27;19921;-84
2024/01/03 11:34:38;;;;;;;3.53;1.08;;;;;;;;;;5126514;27;20499;-83
2024/01/03 11:37:25;;;;;;;4.20;1.13;;;;;;;;;;5126474;27;20462;-84
2024/01/03 11:39:52;;;;;;;17.92;2.17;;;;;;;;;;5122979;27;20047;-83
2024/01/03 11:42:34;;;;;;;7.25;1.88;;;;;;;;;;5120295;27;20039;-84
2024/01/03 11:45:09;;;;;;;8.45;1.75;;;;;;;;;;5124815;27;20040;-84
2024/01/03 11:47:39;;;;;;;7.68;1.17;;;;;;;;;;5127008;27;20035;-83
2024/01/03 11:50:08;;;;;;;14.30;3.25;;;;;;;;;;5127427;27;20739;-83
2024/01/03 11:52:37;;;;;;;14.88;2.60;;;;;;;;;;5114359;27;20103;-83
2024/01/03 11:55:10;;;;;;;10.00;1.42;;;;;;;;;;5100963;27;20402;-83
2024/01/03 11:57:37;;;;;;;8.95;1.92;;;;;;;;;;5119009;27;20035;-84
2024/01/03 12:00:04;;;;;;;10.27;1.80;;;;;;;;;;5106935;27;20039;-84
2024/01/03 12:02:30;;;;;;;6.68;1.40;;;;;;;;;;5103581;27;20445;-83
2024/01/03 12:05:04;;;;;;;5.95;1.30;;;;;;;;;;5122092;27;20043;-84
2024/01/03 12:07:30;;;;;;;3.88;0.82;;;;;;;;;;5124395;27;20042;-82
2024/01/03 12:09:57;;;;;;;10.10;2.20;;;;;;;;;;5122919;27;20035;-84
2024/01/03 12:12:23;;;;;;;2.33;0.32;;;;;;;;;;5105687;27;20044;-83
2024/01/03 12:14:53;;;;;;;4.25;1.27;;;;;;;;;;5123487;27;20035;-83
2024/01/03 12:17:27;;;;;;;8.32;2.00;;;;;;;;;;5122570;27;20039;-83
2024/01/03 12:19:54;;;;;;;1.58;0.63;;;;;;;;;;5125935;27;20510;-83
2024/01/03 12:22:23;;;;;;;5.78;1.25;;;;;;;;;;5123835;27;20122;-83
2024/01/03 12:24:49;;;;;;;3.63;0.80;;;;;;;;;;5124919;27;20063;-83
2024/01/03 12:27:24;;;;;;;8.52;1.60;;;;;;;;;;5122562;27;20046;-82
2024/01/03 12:29:51;;;;;;;6.63;2.03;;;;;;;;;;5125055;27;20122;-83
2024/01/03 12:32:20;;;;;;;5.97;0.93;;;;;;;;;;5124976;27;20042;-83
2024/01/03 12:34:47;;;;;;;6.72;1.40;;;;;;;;;;5127373;27;20534;-83
2024/01/03 12:37:14;;;;;;;4.82;0.93;;;;;;;;;;5124790;27;20038;-83
2024/01/03 12:39:41;;;;;;;8.57;1.58;;;;;;;;;;5124466;27;20035;-84
2024/01/03 12:42:09;;;;;;;6.45;1.55;;;;;;;;;;5120710;27;20062;-83
2024/01/03 12:44:38;;;;;;;6.20;1.70;;;;;;;;;;5125939;27;20047;-82
2024/01/03 12:47:05;;;;;;;8.45;1.45;;;;;;;;;;5129913;27;20049;-82
2024/01/03 12:49:31;;;;;;;1.42;0.50;;;;;;;;;;5127114;27;20177;-82
2024/01/03 12:51:57;;;;;;;4.95;1.45;;;;;;;;;;5128507;27;20038;-83
2024/01/03 12:54:23;;;;;;;6.50;1.10;;;;;;;;;;5130787;27;20039;-82
2024/01/03 12:56:49;;;;;;;4.30;0.85;;;;;;;;;;5125943;27;20053;-82
2024/01/03 12:59:17;;;;;;;6.47;1.17;;;;;;;;;;5117778;27;20035;-83
2024/01/03 13:01:43;;;;;;;3.58;0.60;;;;;;;;;;5124182;27;20039;-83
2024/01/03 13:04:09;;;;;;;4.95;1.15;;;;;;;;;;5123664;27;20046;-82
2024/01/03 13:06:35;;;;;;;7.50;1.13;;;;;;;;;;5123451;27;20055;-83
2024/01/03 13:09:03;;;;;;;13.63;1.45;;;;;;;;;;5122327;27;20035;-84
2024/01/03 13:11:30;;;;;;;10.57;2.47;;;;;;;;;;5122340;27;20079;-83
2024/01/03 13:13:56;;;;;;;2.58;0.55;;;;;;;;;;5126558;27;20122;-84
2024/01/03 13:16:25;;;;;;;6.00;1.80;;;;;;;;;;5123653;27;20038;-83
2024/01/03 13:18:51;;;;;;;7.05;1.10;;;;;;;;;;5121877;27;20039;-83
2024/01/03 13:21:17;;;;;;;1.73;0.32;;;;;;;;;;5120624;28;20035;-84
2024/01/03 13:23:43;;;;;;;2.92;0.82;;;;;;;;;;5122304;28;20047;-84
2024/01/03 13:26:10;;;;;;;1.98;0.65;;;;;;;;;;5120502;28;20035;-83
2024/01/03 13:28:36;;;;;;;1.35;0.52;;;;;;;;;;5117046;28;20070;-83
2024/01/03 13:31:02;;;;;;;2.75;0.75;;;;;;;;;;5119285;27;20067;-84
2024/01/03 13:33:28;;;;;;;1.27;0.75;;;;;;;;;;5121001;28;20047;-84
2024/01/03 13:35:54;;;;;;;5.82;1.48;;;;;;;;;;5118960;28;20043;-84
2024/01/03 13:38:20;;;;;;;4.63;0.98;;;;;;;;;;5122499;28;20047;-84
2024/01/03 13:40:46;;;;;;;5.20;0.77;;;;;;;;;;5101862;28;20089;-84
2024/01/03 13:43:12;;;;;;;7.38;0.80;;;;;;;;;;5118531;28;20126;-85
2024/01/03 13:45:40;;;;;;;4.47;1.17;;;;;;;;;;5119847;28;20394;-85
2024/01/03 13:48:06;;;;;;;0.88;0.35;;;;;;;;;;5122369;28;20074;-87
2024/01/03 13:50:33;;;;;;;2.63;0.63;;;;;;;;;;5121724;27;20039;-88
2024/01/03 13:52:59;;;;;;;2.05;0.68;;;;;;;;;;5127438;27;20074;-84
2024/01/03 13:55:25;;;;;;;2.83;0.52;;;;;;;;;;5122897;27;20165;-86
2024/01/03 13:57:51;;;;;;;0.40;0.20;;;;;;;;;;5128992;27;20035;-86
2024/01/03 14:00:19;;;;;;;4.40;0.80;;;;;;;;;;5122410;27;20089;-86
2024/01/03 14:02:46;;;;;;;3.63;0.70;;;;;;;;;;5123866;27;20133;-85
2024/01/03 14:05:15;;;;;;;3.50;1.05;;;;;;;;;;5123301;27;20118;-86
2024/01/03 14:07:41;;;;;;;3.10;0.40;;;;;;;;;;5125196;27;20560;-86
2024/01/03 14:10:07;;;;;;;1.23;0.40;;;;;;;;;;5105596;27;20039;-86
2024/01/03 14:12:33;;;;;;;7.13;1.52;;;;;;;;;;5122697;27;20039;-84
2024/01/03 14:14:59;;;;;;;2.08;0.40;;;;;;;;;;5120569;27;20127;-84
2024/01/03 14:17:25;;;;;;;2.70;0.85;;;;;;;;;;5124421;27;20039;-84
2024/01/03 14:19:51;;;;;;;3.95;0.77;;;;;;;;;;5127824;27;20161;-84
2024/01/03 14:22:17;;;;;;;2.72;0.47;;;;;;;;;;5129457;27;20131;-84
2024/01/03 14:24:43;;;;;;;3.92;0.40;;;;;;;;;;5122010;27;20520;-84
2024/01/03 14:27:09;;;;;;;1.75;0.63;;;;;;;;;;5123080;27;20047;-85
2024/01/03 14:29:35;;;;;;;1.88;0.70;;;;;;;;;;5123039;27;20042;-84
2024/01/03 14:32:01;;;;;;;1.67;0.55;;;;;;;;;;5124017;27;20035;-85
2024/01/03 14:34:27;;;;;;;3.67;0.75;;;;;;;;;;5119339;27;20067;-84
2024/01/03 14:37:05;;;;;;;4.53;1.67;;;;;;;;;;5123990;27;20032;-84
2024/01/03 14:39:32;;;;;;;8.07;2.92;;;;;;;;;;5125345;27;20034;-85
2024/01/03 14:41:58;;;;;;;3.30;0.50;;;;;;;;;;5124457;27;20032;-84